Time;durP1;ratioP1;P1;durP2;ratioP2;P2;SDS_P1;SDS_P2;PMS_P1;PMS_P2;Temp;Humidity;BMP_temperature;BMP_pressure;BME280_temperature;BME280_humidity;BME280_pressure;Samples;Min_cycle;Max_cycle;Signal;HPM_P1;HPM_P2
2022/03/22 00:01:31;;;;;;;11.63;8.77;;;19.40;92.20;;;;;;4228304;28;20209;-69
2022/03/22 00:03:33;;;;;;;9.70;8.68;;;19.40;92.50;;;;;;4226952;28;20698;-69
2022/03/22 00:05:39;;;;;;;11.50;8.40;;;19.40;92.10;;;;;;4228488;28;20255;-69
2022/03/22 00:07:42;;;;;;;10.68;8.52;;;19.40;92.20;;;;;;4228116;28;20286;-69
2022/03/22 00:09:44;;;;;;;11.70;8.27;;;19.40;92.20;;;;;;4228433;28;20266;-69
2022/03/22 00:11:50;;;;;;;9.15;8.25;;;19.40;92.10;;;;;;4228317;28;20218;-70
2022/03/22 00:13:53;;;;;;;12.13;8.60;;;19.40;92.20;;;;;;4228432;28;20355;-69
2022/03/22 00:15:55;;;;;;;10.48;8.63;;;19.40;92.30;;;;;;4229368;28;20960;-69
2022/03/22 00:17:59;;;;;;;9.68;7.95;;;19.40;92.20;;;;;;4229955;28;20218;-69
2022/03/22 00:20:02;;;;;;;12.43;8.73;;;19.40;92.10;;;;;;4227206;28;20554;-68
2022/03/22 00:22:05;;;;;;;10.15;8.35;;;19.40;92.10;;;;;;4229366;28;20259;-68
2022/03/22 00:24:07;;;;;;;11.75;8.90;;;19.40;92.20;;;;;;4218506;28;20709;-68
2022/03/22 00:26:10;;;;;;;11.80;8.23;;;19.40;92.10;;;;;;4222954;28;20229;-68
2022/03/22 00:28:12;;;;;;;13.10;8.88;;;19.30;92.20;;;;;;4216296;28;20214;-68
2022/03/22 00:30:15;;;;;;;10.00;7.85;;;19.30;92.20;;;;;;4227090;28;20218;-68
2022/03/22 00:32:17;;;;;;;12.18;8.55;;;19.30;92.20;;;;;;4227592;28;20264;-68
2022/03/22 00:34:21;;;;;;;9.43;7.50;;;19.30;92.10;;;;;;4229037;28;20214;-68
2022/03/22 00:36:24;;;;;;;10.82;7.70;;;19.30;92.10;;;;;;4228129;28;20271;-68
2022/03/22 00:38:27;;;;;;;12.38;8.10;;;19.30;92.20;;;;;;4228929;28;20286;-68
2022/03/22 00:40:30;;;;;;;9.98;7.80;;;19.30;92.20;;;;;;4228933;28;20213;-68
2022/03/22 00:42:32;;;;;;;10.15;8.15;;;19.30;92.30;;;;;;4229678;28;20222;-69
2022/03/22 00:44:35;;;;;;;10.45;8.23;;;19.30;92.30;;;;;;4228541;28;20260;-69
2022/03/22 00:46:38;;;;;;;11.13;8.15;;;19.30;92.40;;;;;;4227331;28;20727;-70
2022/03/22 00:48:42;;;;;;;10.82;8.10;;;19.30;92.20;;;;;;4224500;28;20678;-70
2022/03/22 00:50:47;;;;;;;11.63;8.45;;;19.30;92.40;;;;;;4227682;28;20270;-70
2022/03/22 00:52:49;;;;;;;12.38;9.13;;;19.30;92.20;;;;;;4229157;28;20739;-70
2022/03/22 00:54:52;;;;;;;11.13;8.20;;;19.30;92.40;;;;;;4228299;28;20267;-70
2022/03/22 00:56:54;;;;;;;10.52;8.20;;;19.20;92.30;;;;;;4227851;28;20221;-70
2022/03/22 01:01:13;;;;;;;10.77;8.32;;;19.30;92.30;;;;;;4227569;28;20254;-70
2022/03/22 01:03:15;;;;;;;10.98;8.90;;;19.20;92.30;;;;;;4229165;28;20245;-70
2022/03/22 01:05:19;;;;;;;11.88;8.38;;;19.20;92.60;;;;;;4228805;28;20237;-70
2022/03/22 01:07:23;;;;;;;11.48;7.72;;;19.20;92.30;;;;;;4228646;28;20604;-70
2022/03/22 01:09:27;;;;;;;10.32;8.38;;;19.30;92.50;;;;;;4227864;28;20250;-70
2022/03/22 01:11:29;;;;;;;12.85;8.82;;;19.20;92.50;;;;;;4228192;28;20538;-70
2022/03/22 01:13:31;;;;;;;9.68;8.50;;;19.20;92.50;;;;;;4228489;28;20222;-70
2022/03/22 01:15:35;;;;;;;11.63;8.85;;;19.20;92.50;;;;;;4228573;28;20221;-70
2022/03/22 01:17:38;;;;;;;10.70;8.50;;;19.20;92.40;;;;;;4228285;28;20267;-70
2022/03/22 01:19:40;;;;;;;11.20;8.52;;;19.20;92.40;;;;;;4228772;28;20222;-70
2022/03/22 01:21:42;;;;;;;16.15;9.48;;;19.20;92.50;;;;;;4228547;28;21190;-70
2022/03/22 01:23:46;;;;;;;9.55;8.40;;;19.20;92.50;;;;;;4228619;28;20296;-70
2022/03/22 01:25:50;;;;;;;11.52;8.43;;;19.20;92.60;;;;;;4228487;28;20233;-70
2022/03/22 01:27:53;;;;;;;12.23;8.70;;;19.20;92.50;;;;;;4225761;28;20274;-70
2022/03/22 01:29:55;;;;;;;10.98;8.80;;;19.20;92.60;;;;;;4226791;28;20255;-70
2022/03/22 01:31:59;;;;;;;11.52;8.52;;;19.20;92.50;;;;;;4225201;28;20662;-70
2022/03/22 01:34:02;;;;;;;11.13;8.82;;;19.10;92.40;;;;;;4228149;28;20218;-70
2022/03/22 01:36:05;;;;;;;10.77;8.57;;;19.10;92.60;;;;;;4228656;28;20279;-70
2022/03/22 01:38:07;;;;;;;11.38;8.70;;;19.20;92.60;;;;;;4228508;28;20263;-70
2022/03/22 01:40:12;;;;;;;10.88;8.55;;;19.10;92.50;;;;;;4227952;28;20703;-70
2022/03/22 01:42:15;;;;;;;11.65;9.00;;;19.10;92.60;;;;;;4228576;28;20221;-70
2022/03/22 01:44:17;;;;;;;11.30;8.40;;;19.10;92.60;;;;;;4228110;28;20269;-70
2022/03/22 01:46:24;;;;;;;11.88;8.80;;;19.10;92.60;;;;;;4227778;28;20217;-70
2022/03/22 01:48:26;;;;;;;11.43;8.55;;;19.10;92.90;;;;;;4228097;28;20233;-70
2022/03/22 01:50:29;;;;;;;10.55;8.90;;;19.10;92.50;;;;;;4228164;28;20217;-70
2022/03/22 01:52:34;;;;;;;13.00;9.38;;;19.10;92.60;;;;;;4228157;28;20275;-70
2022/03/22 01:54:37;;;;;;;12.70;8.90;;;19.10;92.60;;;;;;4221309;28;20214;-70
2022/03/22 01:56:41;;;;;;;10.50;7.88;;;19.10;92.60;;;;;;4225074;28;20211;-70
2022/03/22 01:58:43;;;;;;;10.35;8.52;;;19.10;92.60;;;;;;4227861;28;20254;-70
2022/03/22 02:00:46;;;;;;;13.00;8.95;;;19.10;92.60;;;;;;4228191;28;20630;-70
2022/03/22 02:07:33;;;;;;;15.60;8.75;;;19.10;92.60;;;;;;4228552;28;20219;-70
2022/03/22 02:09:36;;;;;;;10.05;8.70;;;19.10;92.50;;;;;;4226202;28;20267;-69
2022/03/22 02:11:40;;;;;;;12.52;8.85;;;19.10;92.40;;;;;;4227887;28;20213;-69
2022/03/22 02:13:42;;;;;;;10.68;8.82;;;19.00;92.50;;;;;;4228050;28;20279;-69
2022/03/22 02:15:49;;;;;;;13.32;8.95;;;19.00;92.60;;;;;;4222900;28;20218;-69
2022/03/22 02:17:51;;;;;;;10.88;8.50;;;19.00;92.60;;;;;;4227808;28;20267;-69
2022/03/22 02:19:54;;;;;;;10.80;8.70;;;19.00;92.50;;;;;;4227298;28;20282;-69
2022/03/22 02:22:02;;;;;;;12.88;9.43;;;19.00;92.60;;;;;;4227249;28;20225;-70
2022/03/22 02:24:07;;;;;;;11.43;9.38;;;19.00;92.40;;;;;;4224830;28;20228;-70
2022/03/22 02:26:09;;;;;;;12.20;8.95;;;19.00;92.50;;;;;;4227408;28;20285;-70
2022/03/22 02:28:12;;;;;;;11.48;9.23;;;19.00;92.50;;;;;;4228232;28;20221;-70
2022/03/22 02:30:15;;;;;;;11.13;8.48;;;19.00;92.30;;;;;;4228410;28;20226;-70
2022/03/22 02:32:24;;;;;;;12.23;8.82;;;19.00;92.50;;;;;;4226196;28;20633;-70
2022/03/22 02:34:26;;;;;;;10.38;9.02;;;19.00;92.50;;;;;;4228316;28;20213;-70
2022/03/22 02:36:29;;;;;;;12.13;8.80;;;19.00;92.50;;;;;;4231603;28;20259;-70
2022/03/22 02:38:31;;;;;;;11.45;8.50;;;19.00;92.40;;;;;;4230794;28;20286;-70
2022/03/22 02:40:35;;;;;;;14.43;9.73;;;19.00;92.40;;;;;;4230024;28;20269;-70
2022/03/22 02:42:37;;;;;;;12.38;9.02;;;19.00;92.50;;;;;;4231166;28;20217;-70
2022/03/22 02:44:39;;;;;;;12.07;9.10;;;19.00;92.30;;;;;;4229123;28;20206;-70
2022/03/22 02:46:42;;;;;;;10.65;8.45;;;19.00;92.40;;;;;;4230842;28;20270;-70
2022/03/22 02:48:45;;;;;;;11.32;8.45;;;19.00;92.60;;;;;;4231056;28;20266;-70
2022/03/22 02:50:47;;;;;;;14.75;9.45;;;18.90;92.40;;;;;;4231179;28;20226;-70
2022/03/22 02:52:49;;;;;;;12.52;8.98;;;18.90;92.30;;;;;;4227782;28;20213;-70
2022/03/22 02:54:52;;;;;;;14.32;9.35;;;19.00;92.40;;;;;;4228890;28;20270;-70
2022/03/22 02:56:55;;;;;;;11.77;9.20;;;18.90;92.30;;;;;;4228597;28;20210;-70
2022/03/22 02:58:58;;;;;;;13.43;8.80;;;18.90;92.40;;;;;;4229421;28;20213;-70
2022/03/22 03:01:00;;;;;;;12.23;9.25;;;18.90;92.30;;;;;;4230638;28;20275;-70
2022/03/22 03:03:03;;;;;;;12.68;9.15;;;18.90;92.40;;;;;;4230172;28;20213;-70
2022/03/22 03:05:08;;;;;;;13.02;9.15;;;18.90;92.20;;;;;;4230611;28;20369;-70
2022/03/22 03:07:10;;;;;;;11.30;9.32;;;18.90;92.40;;;;;;4230566;28;20209;-70
2022/03/22 03:09:12;;;;;;;11.10;8.27;;;18.90;92.70;;;;;;4230568;28;20209;-70
2022/03/22 03:11:15;;;;;;;9.90;8.90;;;18.90;92.50;;;;;;4230635;28;20221;-70
2022/03/22 03:13:18;;;;;;;10.98;9.27;;;18.90;92.50;;;;;;4229240;28;20222;-70
2022/03/22 03:15:19;;;;;;;9.63;8.20;;;18.90;92.40;;;;;;4231042;28;20214;-70
2022/03/22 03:17:22;;;;;;;11.93;8.52;;;18.90;92.50;;;;;;4230745;28;20218;-70
2022/03/22 03:19:24;;;;;;;12.43;9.60;;;18.90;92.50;;;;;;4230092;28;20263;-70
2022/03/22 03:21:26;;;;;;;12.90;9.68;;;18.90;92.40;;;;;;4230947;28;20225;-70
2022/03/22 03:23:29;;;;;;;12.88;8.80;;;18.90;92.40;;;;;;4228314;28;20271;-70
2022/03/22 03:25:31;;;;;;;9.85;8.32;;;18.90;92.30;;;;;;4223835;28;20229;-70
2022/03/22 03:27:34;;;;;;;11.65;8.65;;;18.90;92.30;;;;;;4230665;28;20266;-70
2022/03/22 03:29:37;;;;;;;15.95;9.45;;;18.90;92.30;;;;;;4230872;28;20221;-70
2022/03/22 03:31:40;;;;;;;12.10;9.73;;;18.90;92.30;;;;;;4230107;28;20658;-70
2022/03/22 03:33:42;;;;;;;12.25;9.10;;;18.90;92.30;;;;;;4230301;28;20217;-70
2022/03/22 03:35:44;;;;;;;12.10;8.73;;;18.90;92.40;;;;;;4230678;28;20263;-70
2022/03/22 03:37:47;;;;;;;12.07;9.55;;;18.90;92.70;;;;;;4230683;28;20263;-70
2022/03/22 03:39:49;;;;;;;10.32;8.50;;;18.90;92.30;;;;;;4229310;28;20256;-70
2022/03/22 03:41:54;;;;;;;13.68;9.13;;;18.90;92.20;;;;;;4226432;28;20272;-70
2022/03/22 03:43:56;;;;;;;13.80;9.48;;;18.90;92.30;;;;;;4226392;28;20704;-70
2022/03/22 03:48:19;;;;;;;12.82;9.05;;;18.80;92.30;;;;;;4220390;28;20234;-70
2022/03/22 03:50:22;;;;;;;12.80;9.07;;;18.80;92.30;;;;;;4219991;28;20214;-70
2022/03/22 03:52:26;;;;;;;15.55;8.98;;;18.80;92.20;;;;;;4225111;28;20222;-70
2022/03/22 03:54:29;;;;;;;11.45;8.73;;;18.80;92.20;;;;;;4227833;28;20320;-70
2022/03/22 03:56:31;;;;;;;10.77;9.30;;;18.80;92.20;;;;;;4228043;28;20214;-70
2022/03/22 03:58:33;;;;;;;12.15;9.18;;;18.80;92.20;;;;;;4228180;28;20275;-70
2022/03/22 04:00:36;;;;;;;12.90;9.07;;;18.80;92.20;;;;;;4226975;28;20274;-70
2022/03/22 04:02:40;;;;;;;13.80;9.45;;;18.80;92.20;;;;;;4225691;28;20642;-70
2022/03/22 04:04:43;;;;;;;11.25;8.73;;;18.80;92.20;;;;;;4225794;28;20214;-70
2022/03/22 04:06:45;;;;;;;12.30;8.95;;;18.80;92.20;;;;;;4228119;28;20275;-70
2022/03/22 04:08:47;;;;;;;11.40;9.10;;;18.80;92.20;;;;;;4228013;28;20973;-70
2022/03/22 04:10:50;;;;;;;12.48;9.30;;;18.80;92.30;;;;;;4228067;28;20662;-70
2022/03/22 04:12:52;;;;;;;11.55;8.88;;;18.80;92.20;;;;;;4227692;28;21079;-70
2022/03/22 04:14:55;;;;;;;11.48;8.90;;;18.80;92.20;;;;;;4228603;28;20226;-70
2022/03/22 04:16:57;;;;;;;10.77;8.13;;;18.80;92.20;;;;;;4227947;28;20267;-70
2022/03/22 04:19:01;;;;;;;13.00;9.40;;;18.80;92.30;;;;;;4227849;28;20271;-70
2022/03/22 04:21:04;;;;;;;11.23;8.88;;;18.80;92.30;;;;;;4226623;28;20222;-70
2022/03/22 04:23:08;;;;;;;11.20;8.88;;;18.80;92.60;;;;;;4225461;28;20214;-70
2022/03/22 04:25:11;;;;;;;13.48;9.68;;;18.80;92.30;;;;;;4227539;28;20275;-70
2022/03/22 04:34:20;;;;;;;12.25;8.65;;;18.70;92.10;;;;;;4225852;28;20198;-70
2022/03/22 04:36:22;;;;;;;12.38;9.18;;;18.70;92.50;;;;;;4224964;28;20295;-70
2022/03/22 04:38:25;;;;;;;10.98;8.57;;;18.70;92.30;;;;;;4179103;28;1211759;-70
2022/03/22 04:40:27;;;;;;;10.27;8.45;;;18.70;92.20;;;;;;4221327;28;20614;-70
2022/03/22 04:42:29;;;;;;;13.95;9.15;;;18.70;92.20;;;;;;4226731;28;20270;-70
2022/03/22 04:44:32;;;;;;;11.60;8.57;;;18.70;92.20;;;;;;4226498;28;20628;-70
2022/03/22 04:46:34;;;;;;;11.57;8.93;;;18.70;92.20;;;;;;4228306;28;20686;-70
2022/03/22 04:48:36;;;;;;;10.18;8.40;;;18.70;92.20;;;;;;4227889;28;20320;-70
2022/03/22 04:50:40;;;;;;;13.15;8.50;;;18.70;92.50;;;;;;4229339;28;20658;-70
2022/03/22 04:57:22;;;;;;;11.43;8.23;;;18.70;92.20;;;;;;4228172;28;20190;-70
2022/03/22 04:59:24;;;;;;;10.50;9.13;;;18.70;92.20;;;;;;4229039;28;20226;-70
2022/03/22 05:01:26;;;;;;;13.50;8.93;;;18.70;92.20;;;;;;4228247;28;20218;-70
2022/03/22 05:03:29;;;;;;;9.55;8.25;;;18.70;92.20;;;;;;4228786;28;20638;-70
2022/03/22 05:07:52;;;;;;;10.70;8.55;;;18.60;92.10;;;;;;4228383;28;20210;-70
2022/03/22 05:09:54;;;;;;;10.27;9.18;;;18.70;92.10;;;;;;4229316;28;20579;-70
2022/03/22 05:11:57;;;;;;;12.20;8.88;;;18.70;92.10;;;;;;4229187;28;20229;-70
2022/03/22 05:14:00;;;;;;;10.73;8.70;;;18.70;92.10;;;;;;4228842;28;20639;-70
2022/03/22 05:16:03;;;;;;;10.13;8.30;;;18.70;92.20;;;;;;4227094;28;20269;-70
2022/03/22 05:18:05;;;;;;;9.63;8.13;;;18.70;92.20;;;;;;4228472;28;20270;-70
2022/03/22 05:20:09;;;;;;;11.70;8.52;;;18.60;92.20;;;;;;4228489;28;20228;-70
2022/03/22 05:22:11;;;;;;;12.07;8.52;;;18.60;92.20;;;;;;4228229;28;20213;-70
2022/03/22 05:24:15;;;;;;;12.15;8.82;;;18.70;92.20;;;;;;4228603;28;20274;-70
2022/03/22 05:26:18;;;;;;;9.38;8.23;;;18.60;92.50;;;;;;4224566;28;20620;-70
2022/03/22 05:28:20;;;;;;;11.48;8.65;;;18.60;92.10;;;;;;4228449;28;20338;-70
2022/03/22 05:30:23;;;;;;;11.13;9.27;;;18.60;92.10;;;;;;4227148;28;20275;-70
2022/03/22 05:32:25;;;;;;;12.13;8.82;;;18.60;92.10;;;;;;4228771;28;20286;-70
2022/03/22 05:34:27;;;;;;;10.43;8.90;;;18.60;92.10;;;;;;4228683;28;20662;-70
2022/03/22 05:36:30;;;;;;;12.68;8.70;;;18.60;92.20;;;;;;4228587;28;20270;-70
2022/03/22 05:38:32;;;;;;;10.00;8.10;;;18.60;92.20;;;;;;4227814;28;20237;-70
2022/03/22 05:40:36;;;;;;;9.98;8.80;;;18.60;92.20;;;;;;4229157;27;20210;-70
2022/03/22 05:42:39;;;;;;;11.13;8.75;;;18.60;92.10;;;;;;4227775;28;20239;-70
2022/03/22 05:44:43;;;;;;;11.65;8.45;;;18.60;92.10;;;;;;4227044;28;20251;-70
2022/03/22 05:46:45;;;;;;;10.80;8.13;;;18.60;92.20;;;;;;4227468;28;20237;-70
2022/03/22 05:48:48;;;;;;;8.98;8.02;;;18.60;92.10;;;;;;4227078;28;20653;-70
2022/03/22 05:50:51;;;;;;;12.05;8.52;;;18.60;92.10;;;;;;4225602;28;20214;-70
2022/03/22 05:52:53;;;;;;;11.07;8.60;;;18.60;92.20;;;;;;4227038;28;20213;-70
2022/03/22 05:54:56;;;;;;;10.45;8.05;;;18.50;92.10;;;;;;4227986;28;20213;-69
2022/03/22 05:57:00;;;;;;;12.60;8.82;;;18.50;92.60;;;;;;4227510;28;20619;-68
2022/03/22 05:59:02;;;;;;;11.40;9.00;;;18.50;92.20;;;;;;4228100;28;20616;-68
2022/03/22 06:01:05;;;;;;;10.77;8.70;;;18.50;92.20;;;;;;4227912;28;20225;-68
2022/03/22 06:03:08;;;;;;;10.48;8.20;;;18.50;92.20;;;;;;4216419;28;20213;-68
2022/03/22 06:05:13;;;;;;;11.05;8.80;;;18.50;92.30;;;;;;4226421;28;20225;-69
2022/03/22 06:07:20;;;;;;;10.20;7.45;;;18.50;92.40;;;;;;4226122;28;20294;-69
2022/03/22 06:09:22;;;;;;;10.40;7.93;;;18.60;92.40;;;;;;4222070;28;20217;-69
2022/03/22 06:11:24;;;;;;;9.48;7.78;;;18.60;92.40;;;;;;4227797;28;20251;-69
2022/03/22 06:13:28;;;;;;;9.45;7.80;;;18.50;92.40;;;;;;4227954;28;20222;-69
2022/03/22 06:15:32;;;;;;;8.88;7.57;;;18.50;92.50;;;;;;4227998;28;20217;-69
2022/03/22 06:17:34;;;;;;;9.18;7.95;;;18.60;92.60;;;;;;4227840;28;20263;-69
2022/03/22 06:19:37;;;;;;;11.27;7.82;;;18.50;92.60;;;;;;4227715;28;20255;-69
2022/03/22 06:21:39;;;;;;;9.90;7.65;;;18.50;92.60;;;;;;4226837;28;20268;-69
2022/03/22 06:23:41;;;;;;;11.70;7.78;;;18.50;92.60;;;;;;4226479;28;20259;-70
2022/03/22 06:25:44;;;;;;;9.80;7.65;;;18.60;92.60;;;;;;4227128;28;20225;-70
2022/03/22 06:27:48;;;;;;;8.40;7.22;;;18.60;92.60;;;;;;4227437;28;20263;-70
2022/03/22 06:29:52;;;;;;;8.25;7.40;;;18.60;92.60;;;;;;4220070;28;20247;-70
2022/03/22 06:31:54;;;;;;;8.80;7.40;;;18.60;92.60;;;;;;4221175;28;20210;-70
2022/03/22 06:33:56;;;;;;;10.05;7.60;;;18.60;92.60;;;;;;4226610;28;20213;-70
2022/03/22 06:35:59;;;;;;;10.88;7.90;;;18.60;92.60;;;;;;4224831;28;20667;-69
2022/03/22 06:38:02;;;;;;;11.40;7.85;;;18.60;92.60;;;;;;4225385;28;20264;-69
2022/03/22 06:40:06;;;;;;;10.25;7.43;;;18.60;92.60;;;;;;4226026;28;20218;-70
2022/03/22 06:42:09;;;;;;;9.25;7.57;;;18.70;92.70;;;;;;4225935;28;20266;-70
2022/03/22 06:44:11;;;;;;;8.75;7.20;;;18.70;92.70;;;;;;4224003;28;20662;-69
2022/03/22 06:46:15;;;;;;;9.38;7.45;;;18.70;92.70;;;;;;4226463;28;20221;-70
2022/03/22 06:48:18;;;;;;;9.88;7.70;;;18.70;92.70;;;;;;4225628;28;20234;-70
2022/03/22 06:50:21;;;;;;;9.43;7.97;;;18.70;92.70;;;;;;4227015;28;20210;-69
2022/03/22 06:52:25;;;;;;;10.05;7.25;;;18.80;92.80;;;;;;4226467;28;20589;-70
2022/03/22 06:54:32;;;;;;;11.60;7.70;;;18.80;92.70;;;;;;4226202;28;20251;-70
2022/03/22 06:56:34;;;;;;;8.95;7.53;;;18.80;92.70;;;;;;4225888;28;20267;-69
2022/03/22 06:58:37;;;;;;;10.05;7.43;;;18.90;92.80;;;;;;4225717;28;20218;-70
2022/03/22 07:00:39;;;;;;;10.48;7.55;;;18.90;92.80;;;;;;4226457;28;20214;-70
2022/03/22 07:02:43;;;;;;;9.48;7.22;;;18.90;92.80;;;;;;4225562;28;20262;-70
2022/03/22 07:04:46;;;;;;;10.77;7.50;;;18.90;92.90;;;;;;4226316;28;20272;-70
2022/03/22 07:06:49;;;;;;;10.50;7.70;;;18.90;92.80;;;;;;4226256;28;20966;-70
2022/03/22 07:08:52;;;;;;;11.25;8.07;;;18.90;92.90;;;;;;4226167;28;20275;-70
2022/03/22 07:13:14;;;;;;;8.80;7.35;;;19.00;92.80;;;;;;4224179;28;20202;-70
2022/03/22 07:15:17;;;;;;;10.82;7.78;;;19.00;92.80;;;;;;4226318;28;20658;-69
2022/03/22 07:17:19;;;;;;;10.05;7.43;;;19.00;92.70;;;;;;4226654;28;20220;-70
2022/03/22 07:19:24;;;;;;;8.65;7.25;;;19.10;92.70;;;;;;4224515;28;20218;-70
2022/03/22 07:21:26;;;;;;;10.35;7.45;;;19.00;92.60;;;;;;4226457;28;20226;-70
2022/03/22 07:23:29;;;;;;;9.23;7.32;;;19.10;92.50;;;;;;4229292;28;20627;-70
2022/03/22 07:25:32;;;;;;;12.18;7.88;;;19.10;92.70;;;;;;4227093;27;20213;-70
2022/03/22 07:27:35;;;;;;;11.18;7.47;;;19.10;92.40;;;;;;4228272;28;20751;-70
2022/03/22 07:29:38;;;;;;;12.38;7.75;;;19.10;92.40;;;;;;4228679;28;20233;-70
2022/03/22 07:31:41;;;;;;;11.00;8.27;;;19.10;92.30;;;;;;4229637;28;20226;-70
2022/03/22 07:33:43;;;;;;;9.27;7.78;;;19.20;92.40;;;;;;4230337;28;20221;-70
2022/03/22 07:35:46;;;;;;;11.00;7.90;;;19.20;92.20;;;;;;4229420;28;20251;-70
2022/03/22 07:37:49;;;;;;;10.95;8.05;;;19.20;92.30;;;;;;4230540;28;20279;-70
2022/03/22 07:39:52;;;;;;;9.82;7.15;;;19.20;92.30;;;;;;4226621;28;20234;-70
2022/03/22 07:41:54;;;;;;;10.15;8.02;;;19.20;92.50;;;;;;4230063;28;20662;-70
2022/03/22 07:43:56;;;;;;;11.00;7.35;;;19.30;92.40;;;;;;4230384;28;20653;-70
2022/03/22 07:45:59;;;;;;;10.13;7.18;;;19.30;92.40;;;;;;4229924;28;20345;-70
2022/03/22 07:48:01;;;;;;;13.07;7.90;;;19.30;92.50;;;;;;4230088;28;20256;-70
2022/03/22 07:54:46;;;;;;;12.88;7.90;;;19.10;92.60;;;;;;4226628;27;20207;-69
2022/03/22 07:56:48;;;;;;;16.48;8.70;;;19.20;92.90;;;;;;4223242;28;20222;-69
2022/03/22 07:58:50;;;;;;;13.85;8.02;;;19.30;92.70;;;;;;4217557;27;20210;-69
2022/03/22 08:00:53;;;;;;;8.32;7.18;;;19.30;92.70;;;;;;4221638;27;20214;-69
2022/03/22 08:03:00;;;;;;;12.35;8.10;;;19.40;92.60;;;;;;4226547;27;20221;-69
2022/03/22 08:05:05;;;;;;;12.93;8.25;;;19.40;93.00;;;;;;4220547;27;22292;-70
2022/03/22 08:07:07;;;;;;;16.13;7.75;;;19.50;92.80;;;;;;4221858;27;20255;-70
2022/03/22 08:09:11;;;;;;;14.43;8.10;;;19.50;93.10;;;;;;4222053;27;20237;-70
2022/03/22 08:11:13;;;;;;;12.80;7.78;;;19.60;92.80;;;;;;4224889;27;20222;-70
2022/03/22 08:13:16;;;;;;;11.82;7.63;;;19.60;92.90;;;;;;4225714;28;20214;-71
2022/03/22 08:15:19;;;;;;;13.25;7.88;;;19.70;93.50;;;;;;4224888;27;20275;-71
2022/03/22 08:17:22;;;;;;;15.00;8.20;;;19.70;93.30;;;;;;4223944;27;20256;-71
2022/03/22 08:19:28;;;;;;;11.57;7.65;;;19.80;93.50;;;;;;4218762;28;20269;-71
2022/03/22 08:21:32;;;;;;;13.95;8.27;;;19.80;92.80;;;;;;4217936;27;20218;-71
2022/03/22 08:23:38;;;;;;;12.55;7.82;;;19.80;92.60;;;;;;4222294;27;20263;-71
2022/03/22 08:25:46;;;;;;;13.43;8.40;;;19.80;92.70;;;;;;4211775;28;20715;-71
2022/03/22 08:27:48;;;;;;;12.15;8.20;;;19.80;93.00;;;;;;4221299;27;20221;-71
2022/03/22 08:29:52;;;;;;;13.60;8.40;;;19.80;92.60;;;;;;4214358;28;20272;-71
2022/03/22 08:31:54;;;;;;;14.55;8.40;;;19.90;92.40;;;;;;4217996;28;20218;-71
2022/03/22 08:33:57;;;;;;;13.30;7.75;;;20.00;93.10;;;;;;4222462;28;20215;-71
2022/03/22 08:35:59;;;;;;;12.57;8.10;;;20.00;93.10;;;;;;4225258;28;21908;-71
2022/03/22 08:38:02;;;;;;;11.90;7.85;;;20.00;93.40;;;;;;4226697;27;20536;-70
2022/03/22 08:40:05;;;;;;;13.85;8.05;;;20.00;93.90;;;;;;4225789;28;20209;-70
2022/03/22 08:42:09;;;;;;;12.43;8.15;;;20.10;93.50;;;;;;4226624;27;20259;-71
2022/03/22 08:44:12;;;;;;;13.55;7.93;;;20.00;93.30;;;;;;4224619;27;20206;-71
2022/03/22 08:46:15;;;;;;;12.52;7.35;;;20.10;94.30;;;;;;4221409;27;20214;-70
2022/03/22 08:48:18;;;;;;;11.70;7.53;;;20.10;94.40;;;;;;4217380;28;20245;-71
2022/03/22 08:50:23;;;;;;;13.18;7.55;;;20.10;94.30;;;;;;4214666;28;20267;-72
2022/03/22 08:52:25;;;;;;;13.55;7.80;;;20.10;94.30;;;;;;4213291;27;20344;-73
2022/03/22 08:54:28;;;;;;;15.15;7.93;;;20.10;93.60;;;;;;4216242;28;20210;-71
2022/03/22 08:56:32;;;;;;;25.20;9.40;;;20.10;93.40;;;;;;4222186;28;20266;-71
2022/03/22 08:58:36;;;;;;;17.23;8.20;;;20.10;94.30;;;;;;4223021;28;20275;-71
2022/03/22 09:00:38;;;;;;;14.00;8.05;;;20.20;94.30;;;;;;4221294;27;20221;-71
2022/03/22 09:02:43;;;;;;;11.82;8.25;;;20.20;94.20;;;;;;4219180;27;20238;-71
2022/03/22 09:07:05;;;;;;;14.75;8.70;;;20.40;94.40;;;;;;4217864;28;20198;-71
2022/03/22 09:09:10;;;;;;;18.00;8.68;;;20.40;93.00;;;;;;4197654;28;20765;-71
2022/03/22 09:11:13;;;;;;;14.55;8.60;;;20.50;92.60;;;;;;4217883;28;20206;-71
2022/03/22 09:13:19;;;;;;;15.00;8.45;;;20.50;93.20;;;;;;4223176;27;20209;-71
2022/03/22 09:15:26;;;;;;;11.02;7.50;;;20.50;93.80;;;;;;4223545;27;20218;-71
2022/03/22 09:17:28;;;;;;;12.77;7.93;;;20.50;93.50;;;;;;4221240;28;20364;-71
2022/03/22 09:19:33;;;;;;;11.45;7.65;;;20.50;94.00;;;;;;4215869;27;20221;-70
2022/03/22 09:21:36;;;;;;;11.02;7.85;;;20.60;93.30;;;;;;4222956;28;20218;-71
2022/03/22 09:23:43;;;;;;;13.63;7.75;;;20.60;93.20;;;;;;4222468;27;20209;-71
2022/03/22 09:25:46;;;;;;;13.00;7.38;;;20.60;93.40;;;;;;4223257;27;20647;-71
2022/03/22 09:27:50;;;;;;;12.38;7.43;;;20.60;93.00;;;;;;4217818;27;20255;-70
2022/03/22 09:29:52;;;;;;;15.05;8.60;;;20.60;93.80;;;;;;4222535;27;20245;-71
2022/03/22 09:31:56;;;;;;;15.32;8.13;;;20.60;92.80;;;;;;4208920;28;20210;-69
2022/03/22 09:34:00;;;;;;;14.63;8.77;;;20.60;93.40;;;;;;4219172;28;20540;-70
2022/03/22 09:36:02;;;;;;;13.43;8.27;;;20.70;93.90;;;;;;4220288;27;20272;-70
2022/03/22 09:38:04;;;;;;;13.85;7.32;;;20.70;93.50;;;;;;4223460;27;20613;-70
2022/03/22 09:40:08;;;;;;;14.25;8.02;;;20.70;93.50;;;;;;4220170;28;20210;-70
2022/03/22 09:42:11;;;;;;;11.77;7.38;;;20.70;93.20;;;;;;4216391;28;20210;-71
2022/03/22 09:44:17;;;;;;;14.38;8.25;;;20.70;92.90;;;;;;4216803;28;20248;-72
2022/03/22 09:46:20;;;;;;;12.05;7.85;;;20.80;92.80;;;;;;4219952;28;20266;-71
2022/03/22 09:48:24;;;;;;;20.90;8.45;;;20.90;92.80;;;;;;4220378;28;20734;-73
2022/03/22 09:52:44;;;;;;;15.55;7.80;;;20.80;92.10;;;;;;4222124;28;20256;-71
2022/03/22 09:54:47;;;;;;;13.60;8.05;;;20.90;92.10;;;;;;4221933;28;20255;-71
2022/03/22 09:56:50;;;;;;;11.43;7.65;;;20.90;92.20;;;;;;4217656;28;20267;-71
2022/03/22 09:58:52;;;;;;;12.52;7.45;;;20.90;92.20;;;;;;4220045;28;20206;-71
2022/03/22 10:00:57;;;;;;;13.35;7.43;;;21.00;92.10;;;;;;4219824;28;20221;-71
2022/03/22 10:03:00;;;;;;;11.18;7.40;;;21.00;92.80;;;;;;4217673;28;20281;-71
2022/03/22 10:05:05;;;;;;;10.85;7.53;;;20.90;92.50;;;;;;4220174;28;20267;-71
2022/03/22 10:07:08;;;;;;;14.70;7.50;;;21.00;92.80;;;;;;4214219;28;20270;-71
2022/03/22 10:09:10;;;;;;;17.70;7.90;;;21.00;92.40;;;;;;4225276;27;20237;-72
2022/03/22 10:11:13;;;;;;;19.25;8.40;;;20.90;92.20;;;;;;4223092;28;20719;-72
2022/03/22 10:13:15;;;;;;;15.82;7.65;;;21.00;92.60;;;;;;4223857;28;20248;-73
2022/03/22 10:15:18;;;;;;;14.38;7.38;;;21.00;92.90;;;;;;4218464;28;20258;-73
2022/03/22 10:17:30;;;;;;;13.80;7.65;;;21.00;92.60;;;;;;4223095;28;20214;-72
2022/03/22 10:19:33;;;;;;;11.65;6.78;;;21.00;93.40;;;;;;4227900;28;20205;-72
2022/03/22 10:21:46;;;;;;;11.95;6.95;;;21.00;92.70;;;;;;4217986;28;20256;-71
2022/03/22 10:23:50;;;;;;;13.05;6.90;;;21.00;93.20;;;;;;4219873;28;20210;-74
2022/03/22 10:26:03;;;;;;;18.50;7.18;;;21.00;92.80;;;;;;4223337;28;20264;-71
2022/03/22 10:28:07;;;;;;;15.63;6.97;;;20.90;92.90;;;;;;4224985;28;20218;-71
2022/03/22 10:30:10;;;;;;;13.25;7.35;;;20.90;93.00;;;;;;4225150;28;20240;-72
2022/03/22 10:32:12;;;;;;;14.07;6.63;;;21.00;93.60;;;;;;4226248;28;20240;-71
2022/03/22 10:34:16;;;;;;;10.75;7.22;;;21.10;93.80;;;;;;4222476;28;20271;-71
2022/03/22 10:36:21;;;;;;;10.23;6.80;;;21.10;93.90;;;;;;4224668;28;20263;-72
2022/03/22 10:38:25;;;;;;;13.30;6.53;;;21.10;93.40;;;;;;4204767;28;20234;-71
2022/03/22 10:40:29;;;;;;;8.93;6.13;;;21.10;93.50;;;;;;4207957;28;20646;-72
2022/03/22 10:42:33;;;;;;;14.60;7.10;;;21.10;93.30;;;;;;4223848;28;20275;-72
2022/03/22 10:44:36;;;;;;;11.93;6.55;;;21.10;93.30;;;;;;4223546;28;20263;-71
2022/03/22 10:46:43;;;;;;;8.18;6.15;;;21.10;93.10;;;;;;4220699;28;20222;-72
2022/03/22 10:48:47;;;;;;;9.25;6.68;;;21.10;92.60;;;;;;4214942;28;20206;-72
2022/03/22 10:50:50;;;;;;;11.38;7.20;;;21.10;92.20;;;;;;4210582;28;20279;-74
2022/03/22 10:52:57;;;;;;;11.45;7.00;;;21.10;92.40;;;;;;4201570;28;20235;-73
2022/03/22 10:55:01;;;;;;;12.07;6.47;;;21.00;92.50;;;;;;4224294;28;20267;-71
2022/03/22 10:57:08;;;;;;;9.00;6.32;;;21.10;92.40;;;;;;4225299;28;20638;-71
2022/03/22 10:59:13;;;;;;;43.05;8.77;;;21.10;92.50;;;;;;4228425;27;20213;-72
2022/03/22 11:01:15;;;;;;;14.60;6.95;;;21.10;92.60;;;;;;4225424;27;20350;-71
2022/03/22 11:03:19;;;;;;;13.68;6.93;;;21.20;93.30;;;;;;4225938;27;20202;-71
2022/03/22 11:05:23;;;;;;;11.75;6.40;;;21.30;93.10;;;;;;4228360;27;20213;-71
2022/03/22 11:07:26;;;;;;;12.38;6.57;;;21.30;92.70;;;;;;4222428;28;20263;-71
2022/03/22 11:09:28;;;;;;;10.52;6.03;;;21.30;92.80;;;;;;4227454;28;20233;-71